createdAt,value
2018-06-02T00:00:48.198Z,45.77
2018-06-02T00:03:23.271Z,45.40
2018-06-02T00:05:57.997Z,48.90
2018-06-02T00:08:32.962Z,62.43
2018-06-02T00:11:07.764Z,53.00
2018-06-02T00:13:42.751Z,57.17
2018-06-02T00:16:17.523Z,68.57
2018-06-02T00:18:52.249Z,56.73
2018-06-02T00:21:26.972Z,65.90
2018-06-02T00:24:01.714Z,63.10
2018-06-02T00:26:36.808Z,65.87
2018-06-02T00:29:11.653Z,68.57
2018-06-02T00:31:46.613Z,62.27
2018-06-02T00:34:21.534Z,68.13
2018-06-02T00:36:56.352Z,68.30
2018-06-02T00:39:31.187Z,66.20
2018-06-02T00:42:05.798Z,63.87
2018-06-02T00:44:40.923Z,67.77
2018-06-02T00:47:15.813Z,65.43
2018-06-02T00:49:50.935Z,71.30
2018-06-02T00:52:25.775Z,77.30
2018-06-02T00:55:06.941Z,69.33
2018-06-02T00:57:41.374Z,75.47
2018-06-02T01:00:16.294Z,77.67
2018-06-02T01:02:50.674Z,76.80
2018-06-02T01:05:25.566Z,72.80
2018-06-02T01:08:00.216Z,81.17
2018-06-02T01:10:35.514Z,73.40
2018-06-02T01:13:10.249Z,79.47
2018-06-02T01:15:45.061Z,74.07
2018-06-02T01:18:19.958Z,74.80
2018-06-02T01:20:54.816Z,74.87
2018-06-02T01:23:30.113Z,83.67
2018-06-02T01:26:05.033Z,74.10
2018-06-02T01:28:39.518Z,73.10
2018-06-02T01:31:14.382Z,77.10
2018-06-02T01:33:49.114Z,67.07
2018-06-02T01:36:24.017Z,66.73
2018-06-02T01:38:58.756Z,71.80
2018-06-02T01:41:33.484Z,70.00
2018-06-02T01:44:08.318Z,71.63
2018-06-02T01:46:42.825Z,70.57
2018-06-02T01:49:18.076Z,68.67
2018-06-02T01:51:52.950Z,68.97
2018-06-02T01:54:27.858Z,68.70
2018-06-02T01:57:02.577Z,61.87
2018-06-02T01:59:37.313Z,60.47
2018-06-02T02:02:12.029Z,60.40
2018-06-02T02:04:46.865Z,64.37
2018-06-02T02:07:21.851Z,65.80
2018-06-02T02:09:56.563Z,59.10
2018-06-02T02:12:31.755Z,61.37
2018-06-02T02:15:07.011Z,66.40
2018-06-02T02:17:42.018Z,67.60
2018-06-02T02:20:16.778Z,66.43
2018-06-02T02:22:51.813Z,73.80
2018-06-02T02:25:26.774Z,73.70
2018-06-02T02:28:01.683Z,78.00
2018-06-02T02:30:36.295Z,81.53
2018-06-02T02:33:11.301Z,79.63
2018-06-02T02:35:46.190Z,88.17
2018-06-02T02:38:21.106Z,85.13
2018-06-02T02:40:55.820Z,89.67
2018-06-02T02:43:30.873Z,86.10
2018-06-02T02:46:05.423Z,83.23
2018-06-02T02:48:40.530Z,75.63
2018-06-02T02:51:15.386Z,80.37
2018-06-02T02:53:50.110Z,73.10
2018-06-02T02:56:25.249Z,77.30
2018-06-02T02:59:00.270Z,73.63
2018-06-02T03:01:35.301Z,76.17
2018-06-02T03:04:10.029Z,75.53
2018-06-02T03:06:44.859Z,70.70
2018-06-02T03:09:19.685Z,80.43
2018-06-02T03:11:54.414Z,71.77
2018-06-02T03:14:29.458Z,81.07
2018-06-02T03:17:04.042Z,73.03
2018-06-02T03:19:39.221Z,74.20
2018-06-02T03:22:14.257Z,66.00
2018-06-02T03:24:49.246Z,63.40
2018-06-02T03:27:24.049Z,67.10
2018-06-02T03:29:58.673Z,59.50
2018-06-02T03:32:33.610Z,69.23
2018-06-02T03:35:08.607Z,71.57
2018-06-02T03:37:43.329Z,68.73
2018-06-02T03:40:18.172Z,74.67
2018-06-02T03:42:52.801Z,70.60
2018-06-02T03:45:27.543Z,71.60
2018-06-02T03:48:02.462Z,77.30
2018-06-02T03:50:37.238Z,68.17
2018-06-02T03:53:12.064Z,62.27
2018-06-02T03:55:46.647Z,60.80
2018-06-02T03:58:21.422Z,60.57
2018-06-02T04:00:56.216Z,56.93
2018-06-02T04:03:31.517Z,60.00
2018-06-02T04:06:05.386Z,60.13
2018-06-02T04:08:40.458Z,67.50
2018-06-02T04:11:15.524Z,64.23
2018-06-02T04:13:50.005Z,70.50
2018-06-02T04:16:25.002Z,67.23
2018-06-02T04:18:59.849Z,70.60
2018-06-02T04:21:34.606Z,76.97
2018-06-02T04:24:09.693Z,81.17
2018-06-02T04:26:44.514Z,83.70
2018-06-02T04:29:19.411Z,82.77
2018-06-02T04:31:54.077Z,85.90
2018-06-02T04:34:28.995Z,81.53
2018-06-02T04:37:03.873Z,87.07
2018-06-02T04:39:38.532Z,80.50
2018-06-02T04:42:13.280Z,70.03
2018-06-02T04:44:47.834Z,84.63
2018-06-02T04:47:22.645Z,74.57
2018-06-02T04:49:57.423Z,75.10
2018-06-02T04:52:32.274Z,75.40
2018-06-02T04:55:07.006Z,74.37
2018-06-02T04:57:41.970Z,78.80
2018-06-02T05:00:16.525Z,76.63
2018-06-02T05:02:51.330Z,74.80
2018-06-02T05:05:26.261Z,77.00
2018-06-02T05:08:01.305Z,61.80
2018-06-02T05:10:36.094Z,75.83
2018-06-02T05:13:10.957Z,75.37
2018-06-02T05:15:45.770Z,74.93
2018-06-02T05:18:20.750Z,75.00
2018-06-02T05:20:55.678Z,69.77
2018-06-02T05:23:30.473Z,71.63
2018-06-02T05:26:05.386Z,78.40
2018-06-02T05:28:40.064Z,71.97
2018-06-02T05:31:14.970Z,70.73
2018-06-02T05:33:50.019Z,78.53
2018-06-02T05:36:24.947Z,70.30
2018-06-02T05:38:59.769Z,63.47
2018-06-02T05:41:34.710Z,66.07
2018-06-02T05:44:09.560Z,67.97
2018-06-02T05:46:44.472Z,61.03
2018-06-02T05:49:19.270Z,58.53
2018-06-02T05:51:54.147Z,58.13
2018-06-02T05:54:29.099Z,54.57
2018-06-02T05:57:03.878Z,54.27
2018-06-02T05:59:38.954Z,56.00
2018-06-02T06:02:13.868Z,55.13
2018-06-02T06:04:48.591Z,60.67
2018-06-02T06:07:23.546Z,53.07
2018-06-02T06:09:58.549Z,55.70
2018-06-02T06:12:33.206Z,50.93
2018-06-02T06:15:08.149Z,52.80
2018-06-02T06:17:42.966Z,50.03
2018-06-02T06:20:17.612Z,52.90
2018-06-02T06:22:52.774Z,51.73
2018-06-02T06:25:27.746Z,49.23
2018-06-02T06:28:02.767Z,50.50
2018-06-02T06:30:37.502Z,48.97
2018-06-02T06:33:12.577Z,50.73
2018-06-02T06:35:47.513Z,46.73
2018-06-02T06:38:22.328Z,42.03
2018-06-02T06:40:57.006Z,47.80
2018-06-02T06:43:31.908Z,48.67
2018-06-02T06:46:06.919Z,50.40
2018-06-02T06:48:41.817Z,50.53
2018-06-02T06:51:16.577Z,53.93
2018-06-02T06:53:51.414Z,51.83
2018-06-02T06:56:26.325Z,53.73
2018-06-02T06:59:01.691Z,54.63
2018-06-02T07:01:36.119Z,52.53
2018-06-02T07:04:10.963Z,51.60
2018-06-02T07:06:45.564Z,50.80
2018-06-02T07:09:20.326Z,55.90
2018-06-02T07:11:55.131Z,53.70
2018-06-02T07:14:29.959Z,47.00
2018-06-02T07:17:04.602Z,48.23
2018-06-02T07:19:39.554Z,48.27
2018-06-02T07:22:14.137Z,42.83
2018-06-02T07:24:49.440Z,45.67
2018-06-02T07:27:24.154Z,48.67
2018-06-02T07:29:59.122Z,41.43
2018-06-02T07:32:34.082Z,43.30
2018-06-02T07:35:09.133Z,37.33
2018-06-02T07:37:44.166Z,37.67
2018-06-02T07:40:19.016Z,38.63
2018-06-02T07:42:53.950Z,39.53
2018-06-02T07:45:28.654Z,35.73
2018-06-02T07:48:03.733Z,31.33
2018-06-02T07:50:38.630Z,31.77
2018-06-02T07:53:13.658Z,35.60
2018-06-02T07:55:48.410Z,34.20
2018-06-02T07:58:23.493Z,34.03
2018-06-02T08:00:58.266Z,35.07
2018-06-02T08:03:32.981Z,33.27
2018-06-02T08:06:07.730Z,32.50
2018-06-02T08:08:42.579Z,31.90
2018-06-02T08:11:17.417Z,36.03
2018-06-02T08:13:52.101Z,33.53
2018-06-02T08:16:26.927Z,33.40
2018-06-02T08:19:01.791Z,34.33
2018-06-02T08:21:36.713Z,31.07
2018-06-02T08:24:15.684Z,29.60
2018-06-02T08:26:50.441Z,36.87
2018-06-02T08:29:25.388Z,40.07
2018-06-02T08:32:00.103Z,33.23
2018-06-02T08:34:35.049Z,41.23
2018-06-02T08:37:09.761Z,40.90
2018-06-02T08:39:44.541Z,40.53
2018-06-02T08:42:19.371Z,42.07
2018-06-02T08:44:54.093Z,40.20
2018-06-02T08:47:28.785Z,39.53
2018-06-02T08:50:03.951Z,36.60
2018-06-02T08:52:38.864Z,38.03
2018-06-02T08:55:13.900Z,32.77
2018-06-02T08:57:48.942Z,32.37
2018-06-02T09:00:23.898Z,32.97
2018-06-02T09:02:58.774Z,30.70
2018-06-02T09:05:33.626Z,34.20
2018-06-02T09:08:08.348Z,32.67
2018-06-02T09:10:43.435Z,34.70
2018-06-02T09:13:18.133Z,31.43
2018-06-02T09:15:52.974Z,36.23
2018-06-02T09:18:28.553Z,33.43
2018-06-02T09:21:03.450Z,35.60
2018-06-02T09:23:38.238Z,29.97
2018-06-02T09:26:13.102Z,31.20
2018-06-02T09:28:48.060Z,28.63
2018-06-02T09:31:22.690Z,30.33
2018-06-02T09:33:57.502Z,36.73
2018-06-02T09:36:32.374Z,31.97
2018-06-02T09:39:06.662Z,32.57
2018-06-02T09:41:41.994Z,36.60
2018-06-02T09:44:17.093Z,32.47
2018-06-02T09:46:53.332Z,41.23
2018-06-02T09:49:27.917Z,37.10
2018-06-02T09:52:02.715Z,37.50
2018-06-02T09:54:37.573Z,41.00
2018-06-02T09:57:12.213Z,36.10
2018-06-02T09:59:47.042Z,41.83
2018-06-02T10:02:21.963Z,31.87
2018-06-02T10:04:57.026Z,38.83
2018-06-02T10:07:32.053Z,31.13
2018-06-02T10:10:06.759Z,33.23
2018-06-02T10:12:41.692Z,35.83
2018-06-02T10:15:16.610Z,31.93
2018-06-02T10:17:51.585Z,37.30
2018-06-02T10:20:26.622Z,34.80
2018-06-02T10:23:01.099Z,38.07
2018-06-02T10:25:36.378Z,39.50
2018-06-02T10:28:11.157Z,38.50
2018-06-02T10:30:45.958Z,34.47
2018-06-02T10:33:20.775Z,30.53
2018-06-02T10:35:55.694Z,35.13
2018-06-02T10:38:30.482Z,29.40
2018-06-02T10:41:05.354Z,33.47
2018-06-02T10:43:40.271Z,29.97
2018-06-02T10:46:15.034Z,31.83
2018-06-02T10:48:49.867Z,34.30
2018-06-02T10:51:24.633Z,30.03
2018-06-02T10:53:59.727Z,27.03
2018-06-02T10:56:34.449Z,30.93
2018-06-02T10:59:09.065Z,29.63
2018-06-02T11:01:44.057Z,29.90
2018-06-02T11:04:18.825Z,27.53
2018-06-02T11:06:53.466Z,29.47
2018-06-02T11:09:28.481Z,24.23
2018-06-02T11:12:03.138Z,24.23
2018-06-02T11:14:38.053Z,22.60
2018-06-02T11:17:13.014Z,22.93
2018-06-02T11:19:47.817Z,18.37
2018-06-02T11:22:22.552Z,16.77
2018-06-02T11:24:57.493Z,15.70
2018-06-02T11:27:32.315Z,18.40
2018-06-02T11:30:07.566Z,13.80
2018-06-02T11:32:42.290Z,15.70
2018-06-02T11:35:17.122Z,15.10
2018-06-02T11:37:51.955Z,16.30
2018-06-02T11:40:26.798Z,14.40
2018-06-02T11:43:01.605Z,14.10
2018-06-02T11:45:36.655Z,11.53
2018-06-02T11:48:11.586Z,13.77
2018-06-02T11:50:46.762Z,10.17
2018-06-02T11:53:21.538Z,12.37
2018-06-02T11:55:56.278Z,12.37
2018-06-02T11:58:31.175Z,10.83
2018-06-02T12:01:06.259Z,11.50
2018-06-02T12:03:41.081Z,12.23
2018-06-02T12:06:15.918Z,13.67
2018-06-02T12:08:50.621Z,17.03
2018-06-02T12:11:26.005Z,11.60
2018-06-02T12:14:00.858Z,12.97
2018-06-02T12:16:35.565Z,12.60
2018-06-02T12:19:10.287Z,13.43
2018-06-02T12:21:45.214Z,13.23
2018-06-02T12:24:20.023Z,12.10
2018-06-02T12:26:55.469Z,10.93
2018-06-02T12:29:30.434Z,13.93
2018-06-02T12:32:05.246Z,14.37
2018-06-02T12:34:40.224Z,13.80
2018-06-02T12:37:14.626Z,13.90
2018-06-02T12:39:49.637Z,15.40
2018-06-02T12:42:24.471Z,16.63
2018-06-02T12:44:59.482Z,15.77
2018-06-02T12:47:34.322Z,15.30
2018-06-02T12:50:09.337Z,12.33
2018-06-02T12:52:44.200Z,13.83
2018-06-02T12:55:19.211Z,13.53
2018-06-02T12:57:54.266Z,15.63
2018-06-02T13:00:29.003Z,14.40
2018-06-02T13:03:03.847Z,14.87
2018-06-02T13:05:38.662Z,16.40
2018-06-02T13:08:13.349Z,19.70
2018-06-02T13:10:48.370Z,22.23
2018-06-02T13:13:23.362Z,20.70
2018-06-02T13:15:58.114Z,22.43
2018-06-02T13:18:32.949Z,23.53
2018-06-02T13:21:07.799Z,24.60
2018-06-02T13:23:42.669Z,24.97
2018-06-02T13:26:17.430Z,24.10
2018-06-02T13:28:52.450Z,25.60
2018-06-02T13:31:27.205Z,25.17
2018-06-02T13:34:02.210Z,27.80
2018-06-02T13:36:37.149Z,24.80
2018-06-02T13:39:11.794Z,25.40
2018-06-02T13:41:46.790Z,27.17
2018-06-02T13:44:21.648Z,31.00
2018-06-02T13:46:56.369Z,22.73
2018-06-02T13:49:31.087Z,24.90
2018-06-02T13:52:05.698Z,22.03
2018-06-02T13:54:40.765Z,21.90
2018-06-02T13:57:15.848Z,24.27
2018-06-02T13:59:50.626Z,23.80
2018-06-02T14:02:25.465Z,21.07
2018-06-02T14:05:00.406Z,26.40
2018-06-02T14:07:35.456Z,20.87
2018-06-02T14:10:10.428Z,19.93
2018-06-02T14:12:45.408Z,21.27
2018-06-02T14:15:20.349Z,23.10
2018-06-02T14:17:55.070Z,23.07
2018-06-02T14:20:30.305Z,23.00
2018-06-02T14:23:06.691Z,21.40
2018-06-02T14:25:41.716Z,22.83
2018-06-02T14:28:18.404Z,22.00
2018-06-02T14:30:59.166Z,22.20
2018-06-02T14:33:35.582Z,22.17
2018-06-02T14:36:12.018Z,23.03
2018-06-02T14:38:46.996Z,22.50
2018-06-02T14:41:22.098Z,19.47
2018-06-02T14:43:57.006Z,21.27
2018-06-02T14:46:31.745Z,19.43
2018-06-02T14:49:06.565Z,25.13
2018-06-02T14:51:41.778Z,21.93
2018-06-02T14:54:18.199Z,22.67
2018-06-02T14:56:53.654Z,22.10
2018-06-02T14:59:28.525Z,24.63
2018-06-02T15:04:42.994Z,27.30
2018-06-02T15:07:18.499Z,23.33
2018-06-02T15:09:53.325Z,23.40
2018-06-02T15:12:28.213Z,22.90
2018-06-02T15:15:03.544Z,24.17
2018-06-02T15:17:38.523Z,20.47
2018-06-02T15:20:13.425Z,25.20
2018-06-02T15:22:48.231Z,21.50
2018-06-02T15:25:23.248Z,25.60
2018-06-02T15:27:57.945Z,23.80
2018-06-02T15:30:34.464Z,22.60
2018-06-02T15:33:12.706Z,23.07
2018-06-02T15:35:56.423Z,24.43
2018-06-02T15:38:31.885Z,24.37
2018-06-02T15:41:12.859Z,28.10
2018-06-02T15:43:47.858Z,26.97
2018-06-02T15:46:22.582Z,28.47
2018-06-02T15:48:57.630Z,28.20
2018-06-02T15:51:34.136Z,27.60
2018-06-02T15:54:09.887Z,25.80
2018-06-02T15:56:45.202Z,24.27
2018-06-02T15:59:21.183Z,23.73
2018-06-02T16:01:55.869Z,24.80
2018-06-02T16:07:20.678Z,24.10
2018-06-02T16:09:59.407Z,25.10
2018-06-02T16:12:35.261Z,25.97
2018-06-02T16:17:55.742Z,24.87
2018-06-02T16:20:31.428Z,27.90
2018-06-02T16:23:11.840Z,27.40
2018-06-02T16:25:46.608Z,26.60
2018-06-02T16:28:23.076Z,27.53
2018-06-02T16:30:58.332Z,23.60
2018-06-02T16:33:38.391Z,27.03
2018-06-02T16:36:16.838Z,26.53
2018-06-02T16:38:58.258Z,26.77
2018-06-02T16:41:39.527Z,25.27
2018-06-02T16:44:14.627Z,30.80
2018-06-02T16:47:02.357Z,25.97
2018-06-02T16:49:40.261Z,28.00
2018-06-02T16:52:31.234Z,27.50
2018-06-02T16:55:08.666Z,27.77
2018-06-02T16:57:57.553Z,30.47
2018-06-02T17:00:34.912Z,30.27
2018-06-02T17:05:54.124Z,32.03
2018-06-02T17:08:29.366Z,29.23
2018-06-02T17:11:07.124Z,31.73
2018-06-02T17:13:42.392Z,28.63
2018-06-02T17:16:17.047Z,32.63
2018-06-02T17:18:53.283Z,42.73
2018-06-02T17:21:35.128Z,36.70
2018-06-02T17:24:12.541Z,32.80
2018-06-02T17:26:49.569Z,33.33
2018-06-02T17:32:27.273Z,30.43
2018-06-02T17:35:06.766Z,31.60
2018-06-02T17:40:40.401Z,37.10
2018-06-02T17:43:15.312Z,35.30
2018-06-02T17:45:53.608Z,36.43
2018-06-02T17:48:32.881Z,36.57
2018-06-02T17:57:06.258Z,35.70
2018-06-02T17:59:41.190Z,33.50
2018-06-02T18:02:15.941Z,39.27
2018-06-02T18:04:50.778Z,34.87
2018-06-02T18:07:25.723Z,35.30
2018-06-02T18:10:00.439Z,39.47
2018-06-02T18:12:35.174Z,35.67
2018-06-02T18:15:09.994Z,39.67
2018-06-02T18:17:44.729Z,44.60
2018-06-02T18:20:19.573Z,45.60
2018-06-02T18:22:54.400Z,40.27
2018-06-02T18:25:29.110Z,42.87
2018-06-02T18:28:03.855Z,41.53
2018-06-02T18:30:38.685Z,43.93
2018-06-02T18:33:13.691Z,49.10
2018-06-02T18:35:48.618Z,46.27
2018-06-02T18:38:23.495Z,47.47
2018-06-02T18:40:58.396Z,44.23
2018-06-02T18:43:33.237Z,49.80
2018-06-02T18:46:08.437Z,45.17
2018-06-02T18:48:43.119Z,37.17
2018-06-02T18:51:17.941Z,43.97
2018-06-02T18:53:52.741Z,44.60
2018-06-02T18:56:27.508Z,42.80
2018-06-02T18:59:02.219Z,40.00
2018-06-02T19:01:37.067Z,43.00
2018-06-02T19:04:11.988Z,44.17
2018-06-02T19:06:46.610Z,47.83
2018-06-02T19:09:21.565Z,38.23
2018-06-02T19:11:56.802Z,42.17
2018-06-02T19:14:31.470Z,39.23
2018-06-02T19:17:06.210Z,38.63
2018-06-02T19:19:41.081Z,44.30
2018-06-02T19:22:16.009Z,42.50
2018-06-02T19:24:50.769Z,36.93
2018-06-02T19:27:25.582Z,42.20
2018-06-02T19:30:00.386Z,43.57
2018-06-02T19:32:35.218Z,42.17
2018-06-02T19:35:09.766Z,47.93
2018-06-02T19:37:44.406Z,43.13
2018-06-02T19:40:19.030Z,40.87
2018-06-02T19:42:53.740Z,46.27
2018-06-02T19:45:28.375Z,41.07
2018-06-02T19:48:03.178Z,47.80
2018-06-02T19:50:38.176Z,44.83
2018-06-02T19:53:12.942Z,41.70
2018-06-02T19:55:47.797Z,25.77
2018-06-02T19:58:22.524Z,25.57
2018-06-02T20:00:57.458Z,37.10
2018-06-02T20:03:32.287Z,29.00
2018-06-02T20:06:07.107Z,26.70
2018-06-02T20:08:41.837Z,35.37
2018-06-02T20:11:16.559Z,36.40
2018-06-02T20:13:51.526Z,37.90
2018-06-02T20:16:26.450Z,35.80
2018-06-02T20:19:01.210Z,39.10
2018-06-02T20:21:36.210Z,32.37
2018-06-02T20:24:11.217Z,41.80
2018-06-02T20:26:45.979Z,34.67
2018-06-02T20:29:20.894Z,39.13
2018-06-02T20:31:55.673Z,31.30
2018-06-02T20:34:31.043Z,36.47
2018-06-02T20:37:05.542Z,38.00
2018-06-02T20:39:40.462Z,34.90
2018-06-02T20:42:15.361Z,51.63
2018-06-02T20:44:50.086Z,89.67
2018-06-02T20:47:25.030Z,38.63
2018-06-02T20:49:59.754Z,42.40
2018-06-02T20:52:34.407Z,36.33
2018-06-02T20:55:09.324Z,37.50
2018-06-02T20:57:44.047Z,41.07
2018-06-02T21:00:18.894Z,42.23
2018-06-02T21:02:53.563Z,36.60
2018-06-02T21:05:28.270Z,43.37
2018-06-02T21:08:03.070Z,42.77
2018-06-02T21:10:37.661Z,39.13
2018-06-02T21:13:12.827Z,38.93
2018-06-02T21:15:47.910Z,36.70
2018-06-02T21:18:22.787Z,37.17
2018-06-02T21:20:57.736Z,38.07
2018-06-02T21:23:32.454Z,42.40
2018-06-02T21:26:07.598Z,40.77
2018-06-02T21:28:42.270Z,43.30
2018-06-02T21:31:17.250Z,37.73
2018-06-02T21:33:52.082Z,36.10
2018-06-02T21:36:26.390Z,40.57
2018-06-02T21:39:01.406Z,39.50
2018-06-02T21:41:36.381Z,40.97
2018-06-02T21:44:11.234Z,39.80
2018-06-02T21:46:45.954Z,39.57
2018-06-02T21:49:20.830Z,43.80
2018-06-02T21:51:55.596Z,40.90
2018-06-02T21:54:30.337Z,44.63
2018-06-02T21:57:04.732Z,39.47
2018-06-02T21:59:39.915Z,42.90
2018-06-02T22:02:14.620Z,44.40
2018-06-02T22:04:48.930Z,45.60
2018-06-02T22:07:23.329Z,50.20
2018-06-02T22:09:58.403Z,50.67
2018-06-02T22:12:32.654Z,39.97
2018-06-02T22:15:07.915Z,40.47
2018-06-02T22:17:42.610Z,45.70
2018-06-02T22:20:17.450Z,46.13
2018-06-02T22:22:52.178Z,45.07
2018-06-02T22:25:27.011Z,42.17
2018-06-02T22:28:01.639Z,44.80
2018-06-02T22:30:36.361Z,40.90
2018-06-02T22:33:10.979Z,42.37
2018-06-02T22:35:45.906Z,44.53
2018-06-02T22:38:20.881Z,45.27
2018-06-02T22:40:55.739Z,42.37
2018-06-02T22:43:30.594Z,43.40
2018-06-02T22:46:05.578Z,42.50
2018-06-02T22:48:40.126Z,42.07
2018-06-02T22:51:14.514Z,50.87
2018-06-02T22:53:49.485Z,42.50
2018-06-02T22:56:23.693Z,51.60
2018-06-02T22:58:58.076Z,47.77
2018-06-02T23:01:33.189Z,53.33
2018-06-02T23:04:07.818Z,53.70
2018-06-02T23:06:42.322Z,48.97
2018-06-02T23:09:17.074Z,51.10
2018-06-02T23:11:51.891Z,52.83
2018-06-02T23:14:26.813Z,50.97
2018-06-02T23:17:01.514Z,52.60
2018-06-02T23:19:36.168Z,52.00
2018-06-02T23:22:18.307Z,50.70
2018-06-02T23:24:52.988Z,53.50
2018-06-02T23:27:27.542Z,56.67
2018-06-02T23:30:01.893Z,50.50
2018-06-02T23:32:37.036Z,50.70
2018-06-02T23:35:11.692Z,57.70
2018-06-02T23:37:46.322Z,53.90
2018-06-02T23:40:21.269Z,52.03
2018-06-02T23:42:56.029Z,55.27
2018-06-02T23:45:30.929Z,50.17
2018-06-02T23:48:05.655Z,53.40
2018-06-02T23:50:40.381Z,47.13
2018-06-02T23:53:15.330Z,51.53
2018-06-02T23:55:50.139Z,55.43
2018-06-02T23:58:25.154Z,53.47
